Ana Sayfa
METAR-TAF:

METAR-TAF

Havaalanları :

Linden, New Jersey, Amerika Birleşik Devletleri

Enlem: 40-37-03N, Boylam: 074-14-40W, yükseklik: 7 m

Güncel hava durumu gözlemi

Rapor saat 20:35 UTC de 12 dakika önce yapıldı.
Rüzgar batıdan 7 kt
Sıcaklık 28°C
Nem 51%
Basınç 1009 hPa
Görüş mesafesi: 16.1 km
6000 ft yükseklikte parçalı bulutlu
7500 ft yükseklikte çok bulutlu

METAR: KLDJ 162035Z AUTO 27007KT 10SM SCT060 OVC075 28/17 A2980 RMK AO2 T02750171

Saat: 16:47 (20:47 UTC)


TAF: eksik

4.000'den fazla havaalanı için hava durumu gözlemleri ve tahminleri (METAR ve TAF raporları).

Kullanılabilir istasyonlar harita üzerinde sarı ve kırmızı noktalarla gösterilir.

İstasyonun adını görmek için fareyi noktanın üzerinde gezdirin.

Sonrasında hava gözlem ve tahminlerini görmek için tıklayın.

Haritayı değiştirmek için: yaklaştırmak için siyah artı işaretli yeşil düğmeye ve uzaklaştırmak için de eksi işaretli düğmeye hızla tıklayın; bitişik haritalar için yeşil okları kullanın.


METAR-TAF: